Airfield :
LOGIN :

Register | Disclaimer

   EN    FR    IT 

 










Legend :    VFR   Marginal VFR   IFR   Intensive IFR   Very Intensive IFR
Visi :
Ceiling :
>= 8 km
>= 3000ft
5 to 8 km
1000 to 3000 ft
1500m to 5 km
500 to 1000 ft
800 to 1500m
200 to 500 ft
< 800m
< 200 ft
Symbols :   Thunderstorms  Fog  Heavy snow  Heavy precipitations  Wind > 20 kt
SIGMETs :     Misc.  Thunderstorms  Icing  Turbulence  Mountain Waves  Volcanic Ashes







- Airport Elevation : 204 ft
- IATA code : AGF
- Download approach charts


LFBA - Agen

CURRENT METAR :
  • 181200Z AUTO VRB03KT 8000 FEW003 06/06 Q1025 NOSIG

EXPIRED METARs :
  • 181130Z AUTO VRB02KT 0550 0450 R29/0900U FG VV/// 05/05 Q1025 BECMG CAVOK
  • 181100Z AUTO 32003KT 280V360 0350 0300 R29/0550N FG VV/// 04/04 Q1025 BECMG CAVOK
  • 181030Z AUTO VRB02KT 0300 0250 R29/0375N FG VV/// 04/03 Q1025 BECMG CAVOK
  • 181000Z AUTO VRB02KT 0300 0250 R29/0400N FG VV/// 03/03 Q1025 BECMG CAVOK
  • 180930Z AUTO VRB01KT 0250 0200 R29/0325N FG VV/// 02/02 Q1025 BECMG CAVOK

TAF TAF LFBA
Valid from the 18 at 12:00 until the 18 at 21:00 UTC


181100Z 1812/1821 VRB02KT 3000 BR NSC
BECMG 1812/1814 CAVOK
No reported NOTAMs for that airfield.



MET'MAP, your aeronautical weather chart ! - Copyright ORBIFLY December 2007 - Disclaimer

ORBIFLY MET'MAP TEAM :

Programming & Development : Alexandra Zaïnal
Concept & Development : Baudouin d'Aumeries
Co-Development & Prog : Marc-Olivier Méhu
Technical & hardware support : Manuel Goepfert

Contact : metmap@orbifly.com




SOURCES & CREDITS :

   NOAA